Time;durP1;ratioP1;P1;durP2;ratioP2;P2;SDS_P1;SDS_P2;PMS_P1;PMS_P2;Temp;Humidity;BMP_temperature;BMP_pressure;BME280_temperature;BME280_humidity;BME280_pressure;Samples;Min_cycle;Max_cycle;Signal;HPM_P1;HPM_P2
2020/05/20 00:02:00;;;;;;;4.6;2.6;;;;;;;16.61;67.85742;940.1674;;;;
2020/05/20 00:04:25;;;;;;;4.5;2.5;;;;;;;16.59;69.20996;940.219;;;;
2020/05/20 00:06:54;;;;;;;6.3;2.8;;;;;;;16.65;69.44043;940.205;;;;
2020/05/20 00:09:19;;;;;;;4.2;2.6;;;;;;;16.62;69.46973;940.1289;;;;
2020/05/20 00:11:45;;;;;;;3.7;2.7;;;;;;;16.62;70.01367;940.178;;;;
2020/05/20 00:14:10;;;;;;;3.2;2.6;;;;;;;16.52;70.91211;940.1635;;;;
2020/05/20 00:16:36;;;;;;;3.1;2.7;;;;;;;16.48;71.0918;940.0577;;;;
2020/05/20 00:19:05;;;;;;;2.7;2.5;;;;;;;16.42;70.75684;940.132;;;;
2020/05/20 00:21:26;;;;;;;7.7;3.1;;;;;;;16.36;70.92188;940.1286;;;;
2020/05/20 00:26:16;;;;;;;2.8;2.3;;;;;;;16.23;70.59961;940.1178;;;;
2020/05/20 00:28:42;;;;;;;5.7;2.8;;;;;;;16.19;71.28613;940.1019;;;;
2020/05/20 00:31:07;;;;;;;3.9;2.7;;;;;;;16.18;71.44824;940.1397;;;;
2020/05/20 00:33:32;;;;;;;3.4;2.8;;;;;;;16;72.48047;940.1097;;;;
2020/05/20 00:35:57;;;;;;;3.7;2.7;;;;;;;16.04;71.85059;940.145;;;;
2020/05/20 00:39:10;;;;;;;4.1;2.6;;;;;;;16.06;71.15039;940.1625;;;;
2020/05/20 00:41:34;;;;;;;4.9;2.7;;;;;;;16.04;70.99512;940.2043;;;;
2020/05/20 00:43:29;;;;;;;5.8;2.6;;;;;;;16.01;71.08301;940.1987;;;;
2020/05/20 00:45:44;;;;;;;5.4;2.7;;;;;;;16.01;70.88672;940.2067;;;;
2020/05/20 00:48:09;;;;;;;4.5;2.7;;;;;;;15.99;71.21875;940.1716;;;;
2020/05/20 00:50:39;;;;;;;3.9;2.9;;;;;;;15.92;72.04004;940.1424;;;;
2020/05/20 00:52:59;;;;;;;6;2.6;;;;;;;15.9;72.61426;940.1113;;;;
2020/05/20 00:57:51;;;;;;;5.4;3;;;;;;;15.79;73.67188;940.1063;;;;
2020/05/20 01:00:15;;;;;;;5.9;3.2;;;;;;;15.74;73.72168;940.072;;;;
2020/05/20 01:02:40;;;;;;;7.4;3;;;;;;;15.76;73.09961;940.0583;;;;
2020/05/20 01:05:05;;;;;;;8.1;3.2;;;;;;;15.84;72.74316;940.1133;;;;
2020/05/20 01:07:30;;;;;;;7.7;3.1;;;;;;;15.68;73.61816;940.1119;;;;
2020/05/20 01:09:56;;;;;;;7.4;2.9;;;;;;;15.78;72.58398;940.0581;;;;
2020/05/20 01:12:35;;;;;;;6.8;3;;;;;;;15.8;72.27441;940.0861;;;;
2020/05/20 01:15:32;;;;;;;7.3;2.9;;;;;;;15.59;72.91992;940.0568;;;;
2020/05/20 01:19:46;;;;;;;5.9;2.7;;;;;;;15.59;72.43848;939.9869;;;;
2020/05/20 01:24:29;;;;;;;6.4;2.9;;;;;;;15.85;71.50879;940.0193;;;;
2020/05/20 01:26:51;;;;;;;5.8;3.2;;;;;;;15.82;72.08301;939.9955;;;;
2020/05/20 01:29:16;;;;;;;5.5;2.9;;;;;;;15.76;71.37891;939.9683;;;;
2020/05/20 01:31:42;;;;;;;6.1;3.3;;;;;;;15.81;71.7793;939.9905;;;;
2020/05/20 01:34:07;;;;;;;4.6;2.8;;;;;;;15.76;71.53906;939.9562;;;;
2020/05/20 01:36:32;;;;;;;6.5;3;;;;;;;15.81;71.10938;939.9776;;;;
2020/05/20 01:38:57;;;;;;;6.8;2.8;;;;;;;15.86;70.99023;940.0168;;;;
2020/05/20 01:41:22;;;;;;;6.7;2.6;;;;;;;15.88;68.39258;940.0046;;;;
2020/05/20 01:43:47;;;;;;;4.6;2.7;;;;;;;15.9;68.39746;940.0133;;;;
2020/05/20 01:46:13;;;;;;;4.2;3;;;;;;;15.91;68.89453;939.9867;;;;
2020/05/20 01:48:38;;;;;;;3.6;2.7;;;;;;;15.9;69.57422;939.9506;;;;
2020/05/20 01:51:04;;;;;;;4;2.9;;;;;;;15.89;69.93164;939.9363;;;;
2020/05/20 01:53:29;;;;;;;6;2.8;;;;;;;15.82;69.36621;939.9295;;;;
2020/05/20 01:55:54;;;;;;;4.8;2.8;;;;;;;15.84;68.06348;939.9511;;;;
2020/05/20 01:58:19;;;;;;;3.5;2.7;;;;;;;15.93;68.22754;939.8741;;;;
2020/05/20 02:00:44;;;;;;;5.8;2.6;;;;;;;15.96;66.18555;939.9397;;;;
2020/05/20 02:03:09;;;;;;;7;2.4;;;;;;;16.02;67.23438;939.9103;;;;
2020/05/20 02:05:35;;;;;;;5.1;2.5;;;;;;;16.1;66.05566;939.9556;;;;
2020/05/20 02:08:05;;;;;;;3.6;2.5;;;;;;;16.18;65.61719;939.9742;;;;
2020/05/20 02:10:24;;;;;;;4;2.4;;;;;;;16.22;65.18457;939.8912;;;;
2020/05/20 02:12:50;;;;;;;3.9;2.2;;;;;;;16.31;64.36426;939.9241;;;;
2020/05/20 02:15:15;;;;;;;3.1;2.2;;;;;;;16.39;63.6123;939.9402;;;;
2020/05/20 02:17:52;;;;;;;5.8;2;;;;;;;16.39;63.60156;939.9595;;;;
2020/05/20 02:24:56;;;;;;;4;2;;;;;;;16.46;62.89453;939.9044;;;;
2020/05/20 02:27:21;;;;;;;3.7;2;;;;;;;16.56;62.59473;939.9444;;;;
2020/05/20 02:29:46;;;;;;;3.4;2.1;;;;;;;16.58;62.0293;939.9039;;;;
2020/05/20 02:32:11;;;;;;;3.5;2.2;;;;;;;16.6;61.95215;939.9093;;;;
2020/05/20 02:34:36;;;;;;;4.5;2;;;;;;;16.68;62.44922;939.9686;;;;
2020/05/20 02:37:05;;;;;;;3.4;2.1;;;;;;;16.71;61.68945;939.9867;;;;
2020/05/20 02:39:30;;;;;;;4.2;2;;;;;;;16.6;62.03223;939.9978;;;;
2020/05/20 02:41:53;;;;;;;4.1;2.1;;;;;;;16.67;62.07813;939.9678;;;;
2020/05/20 02:45:02;;;;;;;4.4;1.9;;;;;;;16.69;63.05371;940.0673;;;;
2020/05/20 02:46:46;;;;;;;4.1;2.2;;;;;;;16.71;62.83594;940.0558;;;;
2020/05/20 02:49:10;;;;;;;3.7;1.9;;;;;;;16.75;62.36719;940.0731;;;;
2020/05/20 02:51:36;;;;;;;6.5;2.2;;;;;;;16.64;62.61914;940.0435;;;;
2020/05/20 02:54:00;;;;;;;3.6;2.1;;;;;;;16.5;63.0957;940.0439;;;;
2020/05/20 02:56:26;;;;;;;4.6;2.3;;;;;;;16.53;63.79492;939.9817;;;;
2020/05/20 02:58:51;;;;;;;3.9;2.5;;;;;;;16.57;63.89258;939.9571;;;;
2020/05/20 03:01:16;;;;;;;4;2.5;;;;;;;16.58;63.83594;939.9232;;;;
2020/05/20 03:03:41;;;;;;;8.2;2.9;;;;;;;16.52;64.42969;939.9151;;;;
2020/05/20 03:06:06;;;;;;;3.8;2.3;;;;;;;16.32;64.50391;939.8759;;;;
2020/05/20 03:08:31;;;;;;;3.7;2.7;;;;;;;16.37;64.52344;939.9444;;;;
2020/05/20 03:10:56;;;;;;;3.6;2.3;;;;;;;16.47;64.78027;939.9236;;;;
2020/05/20 03:13:21;;;;;;;7.3;2.3;;;;;;;16.38;64.73438;939.9025;;;;
2020/05/20 03:15:46;;;;;;;5.3;2.1;;;;;;;16.39;63.9834;939.8872;;;;
2020/05/20 03:19:21;;;;;;;5.2;2.5;;;;;;;16.53;63.90918;939.8812;;;;
2020/05/20 03:23:23;;;;;;;3.8;2.1;;;;;;;16.58;62.53906;939.8549;;;;
2020/05/20 03:26:18;;;;;;;4.8;2.5;;;;;;;16.58;65.40039;939.8645;;;;
2020/05/20 03:28:03;;;;;;;3.6;2.2;;;;;;;16.65;64.13574;939.8198;;;;
2020/05/20 03:33:33;;;;;;;15.8;3.3;;;;;;;16.8;64.4707;939.8223;;;;
2020/05/20 03:35:29;;;;;;;2.9;2.3;;;;;;;16.71;65.63867;939.8533;;;;
2020/05/20 03:37:42;;;;;;;5.6;2.6;;;;;;;16.65;65.84961;939.7371;;;;
2020/05/20 03:42:32;;;;;;;5.4;2.7;;;;;;;16.56;66.49707;939.8164;;;;
2020/05/20 04:10:28;;;;;;;8.8;2.7;;;;;;;16.53;67.34863;939.9945;;;;
2020/05/20 04:14:42;;;;;;;5.5;2.8;;;;;;;16.43;69.16309;940.0719;;;;
2020/05/20 04:17:05;;;;;;;10.7;2.8;;;;;;;16.41;69.5752;940.0252;;;;
2020/05/20 04:21:52;;;;;;;3.7;2.4;;;;;;;16.36;68.35156;940.0475;;;;
2020/05/20 04:24:20;;;;;;;5.8;2.6;;;;;;;16.28;69.18359;940.0779;;;;
2020/05/20 04:26:48;;;;;;;4.8;2;;;;;;;16.34;66.24316;940.0421;;;;
2020/05/20 04:29:33;;;;;;;3.5;2.1;;;;;;;16.46;64.8252;940.0531;;;;
2020/05/20 04:33:44;;;;;;;5.5;2.2;;;;;;;16.39;67.00195;940.0134;;;;
2020/05/20 04:34:17;;;;;;;4.1;2;;;;;;;16.37;65.10254;940.1381;;;;
2020/05/20 04:37:04;;;;;;;4.1;2;;;;;;;16.35;65.3418;940.1166;;;;
2020/05/20 04:39:16;;;;;;;11;2.3;;;;;;;16.41;65.63086;940.1393;;;;
2020/05/20 04:43:44;;;;;;;5.9;2.4;;;;;;;16.38;66.3291;940.1638;;;;
2020/05/20 04:58:15;;;;;;;6.7;2.5;;;;;;;16.45;66.72266;940.2606;;;;
2020/05/20 05:02:59;;;;;;;3.9;2.7;;;;;;;16.38;69.13184;940.2562;;;;
2020/05/20 05:06:25;;;;;;;7.1;2.9;;;;;;;16.47;68.63477;940.193;;;;
2020/05/20 05:08:59;;;;;;;10.6;3;;;;;;;16.51;69.98438;940.2166;;;;
2020/05/20 05:10:44;;;;;;;9.1;2.9;;;;;;;16.55;70.08496;940.2403;;;;
2020/05/20 05:15:21;;;;;;;8.1;3.2;;;;;;;16.57;69.68262;940.2208;;;;
2020/05/20 05:17:43;;;;;;;6.8;2.6;;;;;;;16.51;69.5;940.2391;;;;
2020/05/20 05:23:04;;;;;;;12.7;3.2;;;;;;;16.47;70.48633;940.1736;;;;
2020/05/20 05:27:44;;;;;;;7.5;2.8;;;;;;;16.47;70.17383;940.2395;;;;
2020/05/20 05:32:20;;;;;;;4.9;2.3;;;;;;;16.45;68.07617;940.2357;;;;
2020/05/20 05:35:09;;;;;;;4.4;2.3;;;;;;;16.49;67.23828;940.4153;;;;
2020/05/20 05:51:48;;;;;;;10.3;3;;;;;;;16.61;69.06152;940.4022;;;;
2020/05/20 05:53:59;;;;;;;7;2.7;;;;;;;16.6;70.72852;940.4335;;;;
2020/05/20 05:56:43;;;;;;;7.3;2.7;;;;;;;16.64;69.88867;940.4688;;;;
2020/05/20 05:59:24;;;;;;;7.4;3.2;;;;;;;16.58;71.84863;940.449;;;;
2020/05/20 06:03:48;;;;;;;12.2;6.9;;;;;;;16.54;72.42188;940.4631;;;;
2020/05/20 06:06:09;;;;;;;8.6;4.3;;;;;;;16.56;71.90234;940.5538;;;;
2020/05/20 06:16:27;;;;;;;7.2;2.9;;;;;;;16.48;73.58984;940.7048;;;;
2020/05/20 06:26:16;;;;;;;19.5;4;;;;;;;16.59;70.51855;940.5817;;;;
2020/05/20 06:37:31;;;;;;;13.5;3.2;;;;;;;17.05;67.44043;940.6139;;;;
2020/05/20 06:39:54;;;;;;;9.9;3;;;;;;;17.23;68.02344;940.675;;;;
2020/05/20 06:42:19;;;;;;;8.4;3.2;;;;;;;17.37;69.06641;940.7004;;;;
2020/05/20 06:44:46;;;;;;;7.4;2.9;;;;;;;17.49;66.18457;940.6887;;;;
2020/05/20 06:48:05;;;;;;;5.5;2.5;;;;;;;17.59;65.90918;940.7221;;;;
2020/05/20 06:49:40;;;;;;;7.1;3;;;;;;;17.66;66.78027;940.7205;;;;
2020/05/20 06:52:41;;;;;;;10.5;3.1;;;;;;;17.72;64.69824;940.7942;;;;
2020/05/20 06:57:02;;;;;;;8.4;2.6;;;;;;;17.81;64.16699;940.7897;;;;
2020/05/20 07:02:09;;;;;;;6.7;2.7;;;;;;;17.64;64.38574;940.8448;;;;
2020/05/20 07:09:34;;;;;;;6.6;2.7;;;;;;;17.6;64.54297;940.8572;;;;
2020/05/20 07:14:38;;;;;;;4.5;2.6;;;;;;;17.72;62.81836;940.8408;;;;
2020/05/20 07:18:52;;;;;;;6.4;2.6;;;;;;;17.93;62.23438;940.8106;;;;
2020/05/20 07:21:19;;;;;;;4.4;2.5;;;;;;;18;61.96289;940.8066;;;;
2020/05/20 07:24:31;;;;;;;8.5;2.8;;;;;;;18.03;61.59668;940.808;;;;
2020/05/20 07:31:02;;;;;;;5;2.5;;;;;;;18.14;62.36816;940.7377;;;;
2020/05/20 07:46:57;;;;;;;4.4;2.6;;;;;;;18.44;60.26953;940.8359;;;;
2020/05/20 07:47:42;;;;;;;5.3;2.5;;;;;;;18.51;60.1748;940.8783;;;;
2020/05/20 07:50:08;;;;;;;5.4;2.7;;;;;;;18.6;60.72266;940.8558;;;;
2020/05/20 07:57:28;;;;;;;6.1;2.7;;;;;;;18.78;60.39941;940.9539;;;;
2020/05/20 08:00:01;;;;;;;5.4;2.4;;;;;;;18.83;60.96484;940.968;;;;
2020/05/20 08:14:32;;;;;;;4.5;2.4;;;;;;;18.9;60.36816;941.0538;;;;
2020/05/20 08:16:56;;;;;;;4.8;2.8;;;;;;;19.01;59.65039;941.0356;;;;
2020/05/20 08:26:36;;;;;;;4;2.5;;;;;;;19.53;58.41504;941.0142;;;;
2020/05/20 08:36:12;;;;;;;5.7;2.5;;;;;;;20.68;54.72363;941.0945;;;;
2020/05/20 08:41:26;;;;;;;4;2.4;;;;;;;20.93;55.36133;941.0586;;;;
2020/05/20 08:43:31;;;;;;;3.7;2.6;;;;;;;21.03;54.27441;941.1074;;;;
2020/05/20 08:45:50;;;;;;;5.7;2.8;;;;;;;21.19;52.5625;941.0949;;;;
2020/05/20 08:48:07;;;;;;;4.5;2.5;;;;;;;21.37;53.09863;941.1239;;;;
2020/05/20 08:50:26;;;;;;;3.7;2.5;;;;;;;21.48;51.29883;941.0895;;;;
2020/05/20 08:52:51;;;;;;;4.7;2.4;;;;;;;21.67;50.83984;941.1071;;;;
2020/05/20 08:55:16;;;;;;;5.7;2.6;;;;;;;21.88;51.44922;941.0762;;;;
2020/05/20 08:57:42;;;;;;;4.9;2.7;;;;;;;22.04;52.12402;941.0619;;;;
2020/05/20 09:00:07;;;;;;;3.5;2.7;;;;;;;21.9;49.35352;941.0602;;;;
2020/05/20 09:02:32;;;;;;;4.5;2.6;;;;;;;21.82;49.3457;941.0898;;;;
2020/05/20 09:04:57;;;;;;;5.1;2.6;;;;;;;21.97;50.05371;941.0815;;;;
2020/05/20 09:07:22;;;;;;;4.5;2.6;;;;;;;21.81;49.69727;941.1296;;;;
2020/05/20 09:09:49;;;;;;;3.7;2.4;;;;;;;21.61;49.54492;941.11;;;;
2020/05/20 09:12:25;;;;;;;4;2.6;;;;;;;21.78;49.21289;941.1411;;;;
2020/05/20 09:14:43;;;;;;;5.3;2.8;;;;;;;21.82;51.38477;941.1214;;;;
2020/05/20 09:26:59;;;;;;;3.9;2.6;;;;;;;21.87;49.94824;941.0837;;;;
2020/05/20 09:29:10;;;;;;;4.8;2.7;;;;;;;21.82;50.41211;941.072;;;;
2020/05/20 09:31:35;;;;;;;3.5;2.7;;;;;;;21.76;52.22168;941.0549;;;;
2020/05/20 09:34:00;;;;;;;6;2.5;;;;;;;21.78;51.2627;941.0656;;;;
2020/05/20 09:37:10;;;;;;;5.3;2.5;;;;;;;21.75;52.65234;941.0503;;;;
2020/05/20 09:41:37;;;;;;;4.9;2.4;;;;;;;21.51;52.78906;941.0602;;;;
2020/05/20 09:44:10;;;;;;;5.2;2.7;;;;;;;21.54;53.64648;941.0983;;;;
2020/05/20 09:46:51;;;;;;;5.1;2.6;;;;;;;21.56;53.23926;941.092;;;;
2020/05/20 09:58:28;;;;;;;6;2.6;;;;;;;21.53;53.90332;941.1619;;;;
2020/05/20 10:00:43;;;;;;;3.8;2.6;;;;;;;21.54;54.43164;941.1558;;;;
2020/05/20 10:03:07;;;;;;;8.6;2.8;;;;;;;21.47;55.3584;941.1011;;;;
2020/05/20 10:05:32;;;;;;;5.7;2.7;;;;;;;21.6;53.67676;941.1842;;;;
2020/05/20 10:07:57;;;;;;;7.4;2.3;;;;;;;21.67;51.71777;941.1223;;;;
2020/05/20 10:10:23;;;;;;;5.7;2.7;;;;;;;21.86;52.9707;941.1652;;;;
2020/05/20 10:12:48;;;;;;;4.1;2.6;;;;;;;21.76;52.10449;941.2114;;;;
2020/05/20 10:15:13;;;;;;;3;2.7;;;;;;;21.98;50.875;941.1234;;;;
2020/05/20 10:17:39;;;;;;;4.5;2.3;;;;;;;21.94;51.64453;941.1886;;;;
2020/05/20 10:20:06;;;;;;;6;2.6;;;;;;;21.89;52.1543;941.0911;;;;
2020/05/20 10:22:37;;;;;;;6.3;2.6;;;;;;;22.05;49.65234;941.0926;;;;
2020/05/20 10:25:02;;;;;;;5.5;2.5;;;;;;;21.96;49.64258;941.0826;;;;
2020/05/20 10:27:27;;;;;;;4;2.2;;;;;;;22.2;49.34082;941.1147;;;;
2020/05/20 10:29:52;;;;;;;3.7;2.1;;;;;;;22.48;47.91699;941.0833;;;;
2020/05/20 10:32:17;;;;;;;5.1;2.2;;;;;;;22.44;49.03906;941.1291;;;;
2020/05/20 10:34:43;;;;;;;3.3;1.7;;;;;;;22.42;46.4209;941.0953;;;;
2020/05/20 10:37:08;;;;;;;4.5;1.9;;;;;;;22.44;48.76953;941.1679;;;;
2020/05/20 10:39:33;;;;;;;2.6;1.7;;;;;;;22.57;46.89355;941.116;;;;
2020/05/20 10:41:58;;;;;;;3.4;1.7;;;;;;;22.65;48.96875;941.1086;;;;
2020/05/20 10:44:23;;;;;;;3.4;1.8;;;;;;;22.34;47.66699;941.1465;;;;
2020/05/20 10:46:48;;;;;;;3.1;1.8;;;;;;;22.09;49.17676;941.1434;;;;
2020/05/20 10:49:13;;;;;;;3.3;1.6;;;;;;;22.1;47.93457;941.1406;;;;
2020/05/20 10:51:38;;;;;;;5.9;1.6;;;;;;;22.04;48.37402;941.1747;;;;
2020/05/20 10:54:03;;;;;;;6.8;1.4;;;;;;;22;48.94434;941.1519;;;;
2020/05/20 10:56:28;;;;;;;2.8;1.5;;;;;;;22;48.53418;941.2249;;;;
2020/05/20 10:58:53;;;;;;;3.1;1.7;;;;;;;22.05;48.78516;941.1722;;;;
2020/05/20 11:01:18;;;;;;;4.5;1.5;;;;;;;22.07;49.20898;941.1417;;;;
2020/05/20 11:03:43;;;;;;;4.2;1.8;;;;;;;22.18;49.10449;941.0887;;;;
2020/05/20 11:06:08;;;;;;;3;1.5;;;;;;;22.25;48.1748;941.1086;;;;
2020/05/20 11:08:34;;;;;;;3.1;1.3;;;;;;;22.44;48.05469;941.1086;;;;
2020/05/20 11:10:59;;;;;;;3;1.6;;;;;;;22.61;47.17969;941.0333;;;;
2020/05/20 11:13:24;;;;;;;2.6;1.8;;;;;;;22.81;46.91992;940.949;;;;
2020/05/20 11:15:49;;;;;;;2.8;1.7;;;;;;;23.02;46.6123;941.0417;;;;
2020/05/20 11:18:14;;;;;;;4.4;2.1;;;;;;;23.15;46.25098;941.0658;;;;
2020/05/20 11:20:39;;;;;;;6.1;1.8;;;;;;;23.23;46.29395;941.1139;;;;
2020/05/20 11:23:04;;;;;;;4;1.9;;;;;;;23.4;46.21777;941.1509;;;;
2020/05/20 11:25:30;;;;;;;3.6;1.6;;;;;;;23.49;45.86328;941.095;;;;
2020/05/20 11:27:55;;;;;;;4.3;1.7;;;;;;;23.52;45.65332;941.0844;;;;
2020/05/20 11:30:20;;;;;;;3;1.2;;;;;;;23.48;44.07422;941.0986;;;;
2020/05/20 11:32:45;;;;;;;2.7;1.5;;;;;;;23.54;44.0332;941.095;;;;
2020/05/20 11:35:11;;;;;;;4;1.4;;;;;;;23.6;45.46191;941.0378;;;;
2020/05/20 11:37:36;;;;;;;3.5;1.3;;;;;;;23.64;42.77148;941.005;;;;
2020/05/20 11:40:02;;;;;;;3.2;1.5;;;;;;;23.46;44.54199;940.972;;;;
2020/05/20 11:42:27;;;;;;;2;1.4;;;;;;;23.6;44.99121;940.9913;;;;
2020/05/20 11:44:52;;;;;;;2.2;1.2;;;;;;;23.53;44.27832;940.9473;;;;
2020/05/20 11:47:18;;;;;;;3.3;1.4;;;;;;;23.74;45.62891;940.9428;;;;
2020/05/20 11:49:43;;;;;;;2.1;1.3;;;;;;;23.83;45.69727;940.8917;;;;
2020/05/20 11:52:08;;;;;;;3.2;1.6;;;;;;;23.76;44.33594;940.8722;;;;
2020/05/20 11:54:34;;;;;;;2.9;1.4;;;;;;;23.74;45.93555;940.9026;;;;
2020/05/20 11:56:59;;;;;;;4.5;1.7;;;;;;;23.55;45.19824;940.8377;;;;
2020/05/20 11:59:24;;;;;;;4.7;1.4;;;;;;;23.52;46.10156;940.8972;;;;
2020/05/20 12:01:50;;;;;;;3.8;1.3;;;;;;;23.31;44.44629;940.8842;;;;
2020/05/20 12:04:14;;;;;;;3.5;1.3;;;;;;;22.71;44.47852;940.8331;;;;
2020/05/20 12:09:05;;;;;;;1.8;1.1;;;;;;;22.22;45.2168;940.9073;;;;
2020/05/20 12:11:48;;;;;;;10.7;1.2;;;;;;;22.18;44.13281;940.9378;;;;
2020/05/20 12:14:13;;;;;;;3.5;1.1;;;;;;;22.22;45.15723;940.9156;;;;
2020/05/20 12:26:49;;;;;;;3.3;1.1;;;;;;;21.92;43.46289;940.8025;;;;
2020/05/20 12:31:30;;;;;;;5.5;1.4;;;;;;;21.72;47.71777;940.8342;;;;
2020/05/20 12:43:43;;;;;;;4.1;2.1;;;;;;;22.25;46.71973;940.8484;;;;
2020/05/20 12:45:49;;;;;;;3.9;1.8;;;;;;;22.18;46.52441;940.8592;;;;
2020/05/20 12:49:07;;;;;;;3.5;1.8;;;;;;;21.98;48.11035;940.8345;;;;
2020/05/20 12:57:56;;;;;;;2.8;1.8;;;;;;;21.96;45.92676;940.8557;;;;
2020/05/20 13:02:48;;;;;;;4.2;2.1;;;;;;;22.42;46.99512;940.7967;;;;
2020/05/20 13:09:59;;;;;;;2.6;1.1;;;;;;;22.32;45.4248;940.782;;;;
2020/05/20 13:12:32;;;;;;;3.1;1.4;;;;;;;22.43;43.40723;940.7989;;;;
2020/05/20 13:17:08;;;;;;;1.6;1;;;;;;;22.8;43.30176;940.7921;;;;
2020/05/20 18:13:56;;;;;;;4.1;1.8;;;;;;;19.4;53.60938;941.0956;;;;
2020/05/20 18:15:58;;;;;;;5.4;2.1;;;;;;;19.38;53.19824;941.0961;;;;
2020/05/20 18:18:19;;;;;;;3.7;2;;;;;;;19.25;53.43945;941.0647;;;;
2020/05/20 18:20:43;;;;;;;3.2;2;;;;;;;19.23;53.49414;941.1024;;;;
2020/05/20 18:23:11;;;;;;;4;2.1;;;;;;;19.2;53.83008;941.1146;;;;
2020/05/20 18:25:36;;;;;;;5.9;2;;;;;;;19.15;54.63867;941.1802;;;;
2020/05/20 18:28:02;;;;;;;6.1;2.1;;;;;;;19.12;54.21582;941.0871;;;;
2020/05/20 18:30:27;;;;;;;5.2;2.3;;;;;;;19.1;55.19043;941.2466;;;;
2020/05/20 18:32:52;;;;;;;4.9;2.1;;;;;;;19.02;54.22559;941.2502;;;;
2020/05/20 18:35:18;;;;;;;4.7;2.2;;;;;;;19;55.35352;941.1964;;;;
2020/05/20 18:37:43;;;;;;;4.3;2.5;;;;;;;18.95;54.9873;941.2949;;;;
2020/05/20 18:40:09;;;;;;;5;2.3;;;;;;;18.87;56.23242;941.3028;;;;
2020/05/20 18:42:34;;;;;;;6.2;2.9;;;;;;;18.74;56.50781;941.3403;;;;
2020/05/20 18:45:00;;;;;;;8;3.3;;;;;;;18.69;57.59375;941.3533;;;;
2020/05/20 18:47:25;;;;;;;12.2;3.1;;;;;;;18.58;57.84766;941.3466;;;;
2020/05/20 18:49:50;;;;;;;14.9;3.3;;;;;;;18.42;58.94238;941.3979;;;;
2020/05/20 18:52:15;;;;;;;9.6;3;;;;;;;18.38;57.77441;941.3615;;;;
2020/05/20 18:54:41;;;;;;;8.4;3;;;;;;;18.25;58.4209;941.3828;;;;
2020/05/20 18:57:06;;;;;;;4.6;3;;;;;;;18.13;59.19434;941.4528;;;;
2020/05/20 18:59:31;;;;;;;4.2;3.1;;;;;;;18.05;59.51953;941.454;;;;
2020/05/20 19:01:57;;;;;;;4.9;3.2;;;;;;;18.03;59.44727;941.4672;;;;
2020/05/20 19:04:21;;;;;;;5.5;3.3;;;;;;;18.03;60.2832;941.4623;;;;
2020/05/20 19:06:47;;;;;;;6.2;3;;;;;;;17.97;60.9502;941.5515;;;;
2020/05/20 19:09:14;;;;;;;6.7;2.6;;;;;;;17.97;60.82227;941.603;;;;
2020/05/20 19:11:39;;;;;;;4.4;2.6;;;;;;;17.94;61.79297;941.5963;;;;
2020/05/20 19:16:37;;;;;;;5.4;2.4;;;;;;;17.81;59.99805;941.6025;;;;
2020/05/20 19:21:25;;;;;;;3.8;2.5;;;;;;;17.71;60.04297;941.6456;;;;
2020/05/20 19:23:52;;;;;;;5.1;3;;;;;;;17.71;61.61035;941.7271;;;;
2020/05/20 19:26:10;;;;;;;4.5;2.6;;;;;;;17.59;61.00098;941.7609;;;;
2020/05/20 19:28:36;;;;;;;4.8;2.7;;;;;;;17.55;61.95898;941.7533;;;;
2020/05/20 19:31:01;;;;;;;6.2;2.8;;;;;;;17.47;62.92285;941.8347;;;;
2020/05/20 19:33:28;;;;;;;3.8;2.6;;;;;;;17.37;62.4668;941.8331;;;;
2020/05/20 19:35:52;;;;;;;4.4;2.8;;;;;;;17.33;62.36914;941.8538;;;;
2020/05/20 19:38:18;;;;;;;6.8;2.6;;;;;;;17.29;62.14258;941.8711;;;;
2020/05/20 19:40:43;;;;;;;6;2.9;;;;;;;17.3;62.99121;941.8492;;;;
2020/05/20 19:43:08;;;;;;;6.9;3.3;;;;;;;17.27;62.72949;941.8126;;;;
2020/05/20 19:45:33;;;;;;;6.7;2.9;;;;;;;17.23;62.67871;941.8855;;;;
2020/05/20 19:48:00;;;;;;;6.1;3.1;;;;;;;17.19;63.04395;941.8879;;;;
2020/05/20 19:50:25;;;;;;;7.6;3.2;;;;;;;17.18;63.08887;941.9386;;;;
2020/05/20 19:52:51;;;;;;;6.2;3.3;;;;;;;17.09;63.87695;941.9669;;;;
2020/05/20 19:55:16;;;;;;;5.7;3.5;;;;;;;17.04;64.58789;941.9417;;;;
2020/05/20 19:57:43;;;;;;;7.6;3.4;;;;;;;16.96;63.91504;941.947;;;;
2020/05/20 20:00:08;;;;;;;6.6;3.5;;;;;;;16.93;64.53613;941.9866;;;;
2020/05/20 20:02:34;;;;;;;5.8;3.7;;;;;;;16.83;64.88184;942.0656;;;;
2020/05/20 20:05:00;;;;;;;8;4.1;;;;;;;16.73;65.80469;942.0331;;;;
2020/05/20 20:07:31;;;;;;;7.2;3.9;;;;;;;16.48;65.87012;941.9316;;;;
2020/05/20 20:09:50;;;;;;;5.1;4;;;;;;;16.28;67.00977;942.0444;;;;
2020/05/20 20:12:23;;;;;;;6.8;4;;;;;;;16.2;67.73828;942.0863;;;;
2020/05/20 20:14:40;;;;;;;4.9;3.1;;;;;;;16.11;67.2959;942.1117;;;;
2020/05/20 20:17:05;;;;;;;5;3;;;;;;;16;66.53906;942.0952;;;;
2020/05/20 20:19:31;;;;;;;6.3;2.8;;;;;;;15.91;66.18945;942.1199;;;;
2020/05/20 20:21:56;;;;;;;4;2.8;;;;;;;15.94;66.40234;942.0723;;;;
2020/05/20 20:24:21;;;;;;;5.1;2.8;;;;;;;15.95;66.85449;942.0803;;;;
2020/05/20 20:26:48;;;;;;;9.6;3.3;;;;;;;15.86;66.18262;942.0711;;;;
2020/05/20 20:29:13;;;;;;;7.3;3.4;;;;;;;15.83;66.48926;942.1194;;;;
2020/05/20 20:31:39;;;;;;;6.7;3.6;;;;;;;15.81;66.92676;942.1657;;;;
2020/05/20 20:34:04;;;;;;;8.2;3.6;;;;;;;15.8;67.60742;942.1497;;;;
2020/05/20 20:36:31;;;;;;;6;3.5;;;;;;;15.65;67.53711;942.1279;;;;
2020/05/20 20:38:56;;;;;;;8.1;3.8;;;;;;;15.6;68.04883;942.1624;;;;
2020/05/20 20:41:21;;;;;;;5.7;4.1;;;;;;;15.57;68.36816;942.1597;;;;
2020/05/20 20:43:46;;;;;;;6.6;4.5;;;;;;;15.56;68.86328;942.1733;;;;
2020/05/20 20:46:11;;;;;;;8.5;4.6;;;;;;;15.52;68.8457;942.1663;;;;
2020/05/20 20:48:37;;;;;;;7.2;5.1;;;;;;;15.37;68.66016;942.217;;;;
2020/05/20 20:51:02;;;;;;;8.3;4.5;;;;;;;15.23;69.09863;942.2318;;;;
2020/05/20 20:53:27;;;;;;;7.4;5;;;;;;;15.01;69.41113;942.274;;;;
2020/05/20 20:55:52;;;;;;;6.3;4.6;;;;;;;15.06;69.43066;942.3008;;;;
2020/05/20 20:58:17;;;;;;;5.5;4.2;;;;;;;15.02;69.58496;942.3041;;;;
2020/05/20 21:00:44;;;;;;;6.3;4.2;;;;;;;14.97;70.01465;942.2958;;;;
2020/05/20 21:03:09;;;;;;;6.8;4.1;;;;;;;14.94;70.50684;942.3014;;;;
2020/05/20 21:05:34;;;;;;;7.7;4.8;;;;;;;14.96;70.1748;942.3231;;;;
2020/05/20 21:08:00;;;;;;;7;4.4;;;;;;;14.96;70.06152;942.3247;;;;
2020/05/20 21:10:29;;;;;;;8.1;4.6;;;;;;;14.93;70.65527;942.3262;;;;
2020/05/20 21:12:54;;;;;;;5.6;4.2;;;;;;;14.9;70.83398;942.3408;;;;
2020/05/20 21:15:19;;;;;;;6;4.3;;;;;;;14.87;70.7373;942.372;;;;
2020/05/20 21:17:44;;;;;;;7;3.8;;;;;;;14.81;70.625;942.3549;;;;
2020/05/20 21:20:09;;;;;;;4.6;3.4;;;;;;;14.74;70.6709;942.363;;;;
2020/05/20 21:22:34;;;;;;;5.2;3.5;;;;;;;14.69;71.01953;942.3958;;;;
2020/05/20 21:25:01;;;;;;;6.4;4.5;;;;;;;14.49;71.93164;942.3962;;;;
2020/05/20 21:27:26;;;;;;;6.1;4.4;;;;;;;14.43;72.24512;942.3817;;;;
2020/05/20 21:29:52;;;;;;;9;4.3;;;;;;;14.43;72.03809;942.4199;;;;
2020/05/20 21:32:17;;;;;;;5.8;3.6;;;;;;;14.41;71.66504;942.3602;;;;
2020/05/20 21:34:42;;;;;;;6.8;3.6;;;;;;;14.37;71.73926;942.4091;;;;
2020/05/20 21:37:07;;;;;;;4.7;3.4;;;;;;;14.41;71.67676;942.4428;;;;
2020/05/20 21:39:33;;;;;;;5.5;3.6;;;;;;;14.46;71.32813;942.4227;;;;
2020/05/20 21:41:58;;;;;;;7.9;3.6;;;;;;;14.44;71.25586;942.3937;;;;
2020/05/20 21:48:17;;;;;;;5;3.4;;;;;;;14.4;71.80176;942.5052;;;;
2020/05/20 21:49:17;;;;;;;4.9;3.3;;;;;;;14.32;71.96094;942.4467;;;;
2020/05/20 21:51:39;;;;;;;4.4;3.3;;;;;;;14.3;71.80859;942.5034;;;;
2020/05/20 21:54:05;;;;;;;5.5;3.4;;;;;;;14.27;72.20703;942.4377;;;;
2020/05/20 21:56:30;;;;;;;4.9;3;;;;;;;14.21;72.33496;942.5862;;;;
2020/05/20 21:58:57;;;;;;;3.4;3;;;;;;;14.13;72.49414;942.5573;;;;
2020/05/20 22:01:22;;;;;;;4.7;2.8;;;;;;;14.12;72.37695;942.5436;;;;
2020/05/20 22:03:47;;;;;;;5.2;3.2;;;;;;;14.03;72.70801;942.5722;;;;
2020/05/20 22:06:12;;;;;;;4.2;2.9;;;;;;;14;73.14063;942.6142;;;;
2020/05/20 22:08:37;;;;;;;4.4;3.4;;;;;;;13.98;72.99902;942.5781;;;;
2020/05/20 22:11:03;;;;;;;5;3.8;;;;;;;13.83;74.00879;942.5751;;;;
2020/05/20 22:13:28;;;;;;;6.6;4.6;;;;;;;13.64;74.43652;942.5789;;;;
2020/05/20 22:15:53;;;;;;;5.7;4.4;;;;;;;13.44;75.10352;942.6625;;;;
2020/05/20 22:18:18;;;;;;;7;4.4;;;;;;;13.37;75.36719;942.7009;;;;
2020/05/20 22:20:43;;;;;;;5.8;4.3;;;;;;;13.37;75.66797;942.6635;;;;
2020/05/20 22:23:08;;;;;;;5.3;3.9;;;;;;;13.22;75.91699;942.6002;;;;
2020/05/20 22:25:33;;;;;;;6.2;4.4;;;;;;;13.19;76.12891;942.6404;;;;
2020/05/20 22:27:59;;;;;;;4.9;3.2;;;;;;;13.16;76.29492;942.6047;;;;
2020/05/20 22:30:24;;;;;;;5;3.3;;;;;;;13.18;76.04688;942.6292;;;;
2020/05/20 22:33:10;;;;;;;4.1;3.7;;;;;;;13.17;75.88379;942.5608;;;;
2020/05/20 22:35:17;;;;;;;5.2;3.4;;;;;;;13.2;75.56934;942.6189;;;;
2020/05/20 22:37:49;;;;;;;7.1;3.6;;;;;;;13.15;75.76465;942.6214;;;;
2020/05/20 22:40:14;;;;;;;5.9;3.7;;;;;;;13.08;76.06348;942.5978;;;;
2020/05/20 22:42:45;;;;;;;5.1;3.7;;;;;;;13.08;75.8457;942.5506;;;;
2020/05/20 22:45:22;;;;;;;6;3.4;;;;;;;13.03;76.35254;942.5927;;;;
2020/05/20 22:50:02;;;;;;;7;3.6;;;;;;;13.05;75.9668;942.6064;;;;
2020/05/20 22:52:39;;;;;;;8.3;3.8;;;;;;;13.05;75.94434;942.6088;;;;
2020/05/20 22:57:16;;;;;;;6.9;3.5;;;;;;;13.01;76.0752;942.5773;;;;
2020/05/20 22:59:47;;;;;;;8.2;3.6;;;;;;;12.97;76.28613;942.6216;;;;
2020/05/20 23:01:57;;;;;;;6.9;4;;;;;;;12.89;76.43359;942.5978;;;;
2020/05/20 23:04:22;;;;;;;10.3;4.6;;;;;;;12.85;76.53906;942.6174;;;;
2020/05/20 23:06:47;;;;;;;9.4;4.2;;;;;;;12.85;76.62109;942.5959;;;;
2020/05/20 23:09:13;;;;;;;7.3;4.2;;;;;;;12.86;76.49512;942.5464;;;;
2020/05/20 23:11:38;;;;;;;9.6;4.3;;;;;;;12.77;76.69824;942.5783;;;;
2020/05/20 23:14:20;;;;;;;4.9;3.9;;;;;;;12.75;76.74023;942.59;;;;
2020/05/20 23:21:19;;;;;;;4.3;3.6;;;;;;;12.59;76.97656;942.5916;;;;
2020/05/20 23:23:43;;;;;;;4.7;3.8;;;;;;;12.49;77.21094;942.5588;;;;
2020/05/20 23:26:10;;;;;;;6.2;3.9;;;;;;;12.5;77.37305;942.5149;;;;
2020/05/20 23:28:35;;;;;;;5.5;4;;;;;;;12.48;77.30176;942.6114;;;;
2020/05/20 23:31:01;;;;;;;4.5;3.7;;;;;;;12.49;77.22266;942.574;;;;
2020/05/20 23:33:26;;;;;;;6.8;3.6;;;;;;;12.44;77.43066;942.5767;;;;